Time;durP1;ratioP1;P1;durP2;ratioP2;P2;SDS_P1;SDS_P2;PMS_P1;PMS_P2;Temp;Humidity;BMP_temperature;BMP_pressure;BME280_temperature;BME280_humidity;BME280_pressure;Samples;Min_cycle;Max_cycle;Signal;HPM_P1;HPM_P2
2021/07/18 00:02:03;;;;;;;23.27;8.75;;;;;;;17.28;81.05;102375.75;5066614;28;20109;-61
2021/07/18 00:04:29;;;;;;;24.15;8.80;;;;;;;17.28;81.25;102368.59;5060821;28;20115;-61
2021/07/18 00:06:54;;;;;;;25.95;9.07;;;;;;;17.33;80.92;102372.19;5046250;28;20024;-61
2021/07/18 00:09:19;;;;;;;24.27;9.13;;;;;;;17.35;81.18;102374.84;5064548;28;20017;-61
2021/07/18 00:11:45;;;;;;;24.55;9.35;;;;;;;17.30;81.80;102371.28;5064604;28;20437;-61
2021/07/18 00:14:11;;;;;;;25.08;9.00;;;;;;;17.30;81.52;102376.63;5062795;28;20033;-60
2021/07/18 00:16:37;;;;;;;24.33;9.25;;;;;;;17.29;81.61;102370.41;5065972;28;20024;-61
2021/07/18 00:19:03;;;;;;;22.98;8.57;;;;;;;17.25;81.01;102373.94;5062332;28;20021;-61
2021/07/18 00:21:29;;;;;;;25.23;8.70;;;;;;;17.25;81.46;102368.59;5064794;28;20040;-60
2021/07/18 00:24:44;;;;;;;23.98;9.02;;;;;;;17.13;80.76;102364.16;5063608;28;20028;-61
2021/07/18 00:27:09;;;;;;;24.77;9.55;;;;;;;16.99;82.81;102360.56;5062366;28;20460;-67
2021/07/18 00:29:35;;;;;;;22.67;9.07;;;;;;;16.98;82.29;102358.78;5065900;28;20024;-67
2021/07/18 00:32:00;;;;;;;23.25;9.05;;;;;;;16.99;82.53;102364.13;5062694;28;20025;-65
2021/07/18 00:34:25;;;;;;;24.08;9.32;;;;;;;16.97;83.07;102367.69;5067596;28;20557;-65
2021/07/18 00:36:51;;;;;;;23.40;8.85;;;;;;;16.90;82.59;102358.75;5068996;28;20034;-65
2021/07/18 00:39:16;;;;;;;23.30;8.98;;;;;;;16.77;82.72;102359.59;5068993;28;20464;-67
2021/07/18 00:41:43;;;;;;;22.98;9.05;;;;;;;16.66;84.33;102362.22;5070164;28;20028;-63
2021/07/18 00:44:08;;;;;;;22.52;9.05;;;;;;;16.57;83.75;102368.41;5067425;28;20132;-67
2021/07/18 00:46:34;;;;;;;22.00;8.57;;;;;;;16.55;84.16;102359.53;5065857;28;20104;-68
2021/07/18 00:49:00;;;;;;;24.23;9.25;;;;;;;16.52;85.12;102362.19;5066693;28;20068;-67
2021/07/18 00:51:25;;;;;;;23.80;9.10;;;;;;;16.53;85.15;102363.97;5069954;28;20021;-66
2021/07/18 00:53:51;;;;;;;24.15;9.27;;;;;;;16.43;85.52;102356.84;5068690;28;20091;-66
2021/07/18 00:56:18;;;;;;;23.75;9.43;;;;;;;16.40;87.40;102363.03;5069598;28;20064;-67
2021/07/18 00:58:45;;;;;;;25.92;9.63;;;;;;;16.45;86.35;102363.06;5068555;28;20056;-67
2021/07/18 01:01:12;;;;;;;23.42;8.70;;;;;;;16.31;86.11;102361.22;5062214;28;20120;-67
2021/07/18 01:03:37;;;;;;;24.10;9.57;;;;;;;16.26;86.55;102357.63;5071091;28;20107;-67
2021/07/18 01:06:02;;;;;;;23.38;9.00;;;;;;;16.20;86.65;102352.28;5067569;28;20036;-67
2021/07/18 01:08:28;;;;;;;24.88;9.70;;;;;;;16.16;86.75;102358.47;5069485;28;20033;-62
2021/07/18 01:10:53;;;;;;;24.60;9.20;;;;;;;16.11;87.79;102354.91;5067804;28;20036;-62
2021/07/18 01:13:19;;;;;;;23.85;9.57;;;;;;;16.08;87.08;102354.88;5066238;28;20032;-62
2021/07/18 01:15:45;;;;;;;24.27;10.00;;;;;;;16.03;88.20;102355.75;5063833;28;20024;-62
2021/07/18 01:18:11;;;;;;;25.20;9.80;;;;;;;16.04;88.48;102352.19;5062090;28;20103;-62
2021/07/18 01:20:39;;;;;;;23.70;9.65;;;;;;;15.98;87.15;102354.81;5064949;28;20037;-61
2021/07/18 01:23:04;;;;;;;24.90;9.50;;;;;;;16.00;88.18;102358.41;5061487;28;20048;-65
2021/07/18 01:25:32;;;;;;;23.95;9.88;;;;;;;15.94;88.80;102355.69;5064727;28;20424;-62
2021/07/18 01:27:57;;;;;;;24.27;9.55;;;;;;;15.87;88.20;102345.84;5061912;28;20215;-61
2021/07/18 01:30:23;;;;;;;25.50;9.95;;;;;;;15.86;89.80;102352.97;5063200;28;20125;-61
2021/07/18 01:32:48;;;;;;;27.65;11.10;;;;;;;15.84;92.12;102346.75;5063064;28;20052;-62
2021/07/18 01:35:14;;;;;;;25.75;10.18;;;;;;;15.81;89.32;102345.81;5061847;28;20037;-61
2021/07/18 01:37:40;;;;;;;26.63;11.57;;;;;;;15.76;91.61;102342.22;5064098;28;20029;-62
2021/07/18 01:40:07;;;;;;;25.25;10.45;;;;;;;15.71;91.37;102342.16;5061204;28;20021;-62
2021/07/18 01:42:33;;;;;;;26.30;10.23;;;;;;;15.65;90.74;102332.38;5060734;28;20108;-61
2021/07/18 01:44:58;;;;;;;27.80;11.82;;;;;;;15.58;93.00;102335.88;5063576;28;20040;-61
2021/07/18 01:47:24;;;;;;;26.63;11.40;;;;;;;15.60;93.32;102336.78;5043657;28;20075;-62
2021/07/18 01:49:49;;;;;;;27.30;11.55;;;;;;;15.62;94.17;102335.00;5062551;28;20064;-61
2021/07/18 01:52:17;;;;;;;27.10;11.00;;;;;;;15.64;91.92;102330.59;5063516;28;20414;-62
2021/07/18 01:54:43;;;;;;;26.45;11.20;;;;;;;15.67;92.72;102327.94;5061740;28;20039;-62
2021/07/18 01:57:18;;;;;;;25.65;10.90;;;;;;;15.62;92.07;102329.66;5064166;28;20033;-61
2021/07/18 01:59:44;;;;;;;25.73;10.35;;;;;;;15.55;91.71;102338.50;5061385;28;20053;-61
2021/07/18 02:02:10;;;;;;;26.58;10.55;;;;;;;15.56;90.70;102329.63;5064032;28;20484;-68
2021/07/18 02:04:35;;;;;;;24.92;10.70;;;;;;;15.61;90.14;102330.56;5060738;28;20025;-67
2021/07/18 02:07:03;;;;;;;25.92;11.35;;;;;;;15.62;91.80;102326.13;5063893;28;20029;-65
2021/07/18 02:09:28;;;;;;;27.63;12.23;;;;;;;15.56;92.95;102329.63;5061354;28;20030;-65
2021/07/18 02:11:54;;;;;;;25.20;11.00;;;;;;;15.55;90.48;102335.84;5062742;28;20522;-63
2021/07/18 02:14:19;;;;;;;26.08;11.70;;;;;;;15.48;91.91;102323.38;5062506;28;20044;-67
2021/07/18 02:16:45;;;;;;;27.08;11.10;;;;;;;15.40;91.98;102317.09;5061894;28;20111;-66
2021/07/18 02:19:10;;;;;;;26.80;11.07;;;;;;;15.34;91.92;102315.25;5063758;28;20028;-67
2021/07/18 02:21:40;;;;;;;25.73;11.18;;;;;;;15.26;91.26;102314.28;5060670;28;20096;-66
2021/07/18 02:24:06;;;;;;;25.80;11.05;;;;;;;15.23;92.85;102319.59;5060692;28;20464;-65
2021/07/18 02:26:31;;;;;;;24.42;10.23;;;;;;;15.18;93.19;102322.22;5063637;28;20420;-66
2021/07/18 02:28:58;;;;;;;25.55;10.32;;;;;;;15.12;93.19;102319.53;5061196;28;20059;-67
2021/07/18 02:31:24;;;;;;;23.58;9.48;;;;;;;15.12;92.64;102323.06;5062894;28;20435;-66
2021/07/18 02:33:49;;;;;;;27.08;11.80;;;;;;;15.11;95.32;102310.63;5062201;28;20028;-67
2021/07/18 02:36:15;;;;;;;26.92;11.57;;;;;;;15.03;95.67;102312.34;5061377;28;20061;-67
2021/07/18 02:38:40;;;;;;;25.63;10.02;;;;;;;15.03;93.36;102311.44;5063444;28;20063;-61
2021/07/18 02:41:06;;;;;;;25.42;10.73;;;;;;;15.07;92.88;102319.50;5060320;28;20053;-62
2021/07/18 02:43:31;;;;;;;26.23;11.65;;;;;;;15.09;93.74;102314.19;5064846;28;20052;-61
2021/07/18 02:45:56;;;;;;;25.45;10.95;;;;;;;15.11;93.17;102315.06;5065098;28;20388;-60
2021/07/18 02:48:22;;;;;;;27.77;11.63;;;;;;;15.09;93.39;102316.84;5065895;28;20071;-61
2021/07/18 02:50:47;;;;;;;24.60;10.25;;;;;;;14.94;92.19;102314.91;5066580;28;20021;-60
2021/07/18 02:53:13;;;;;;;26.48;10.60;;;;;;;14.88;92.68;102310.44;5064717;28;20036;-62
2021/07/18 02:55:38;;;;;;;23.70;10.38;;;;;;;14.82;94.05;102310.34;5067358;28;20039;-61
2021/07/18 02:58:03;;;;;;;27.10;11.55;;;;;;;14.80;95.54;102312.13;5064032;28;20110;-61
2021/07/18 03:00:29;;;;;;;26.55;11.27;;;;;;;14.73;93.75;102305.81;5066420;28;20048;-62
2021/07/18 03:02:55;;;;;;;28.10;11.60;;;;;;;14.75;96.17;102317.41;5065118;28;20056;-62
2021/07/18 03:05:20;;;;;;;29.10;13.73;;;;;;;14.79;99.35;102312.97;5065657;28;20471;-61
2021/07/18 03:07:46;;;;;;;28.83;12.23;;;;;;;14.79;98.62;102316.56;5066563;28;20032;-61
2021/07/18 03:10:14;;;;;;;29.58;12.30;;;;;;;14.74;95.29;102320.06;5064554;28;20502;-61
2021/07/18 03:12:40;;;;;;;27.30;11.68;;;;;;;14.81;95.55;102316.56;5067316;28;20040;-60
2021/07/18 03:15:07;;;;;;;28.95;13.35;;;;;;;14.85;96.42;102314.81;5063760;28;20365;-60
2021/07/18 03:17:33;;;;;;;30.02;13.50;;;;;;;14.85;95.60;102312.16;5066861;28;20107;-61
2021/07/18 03:19:59;;;;;;;27.65;13.75;;;;;;;14.86;97.68;102312.16;5064460;28;20052;-61
2021/07/18 03:22:26;;;;;;;32.03;14.77;;;;;;;14.84;97.55;102308.63;5065634;28;20052;-64
2021/07/18 03:24:51;;;;;;;30.23;14.55;;;;;;;14.80;99.74;102309.47;5046796;28;20391;-64
2021/07/18 03:27:16;;;;;;;30.00;13.88;;;;;;;14.75;99.81;102308.50;5064785;28;20029;-64
2021/07/18 03:29:42;;;;;;;28.13;12.93;;;;;;;14.79;97.62;102310.31;5066361;28;20028;-69
2021/07/18 03:32:07;;;;;;;28.30;13.32;;;;;;;14.80;98.14;102306.78;5063939;28;20367;-65
2021/07/18 03:34:33;;;;;;;30.40;15.10;;;;;;;14.82;99.96;102305.03;5069559;28;20052;-67
2021/07/18 03:36:58;;;;;;;31.42;15.43;;;;;;;14.78;100.00;102314.75;5069918;28;20108;-72
2021/07/18 03:39:23;;;;;;;30.60;13.80;;;;;;;14.74;97.69;102317.38;5086570;28;20028;-66
2021/07/18 03:41:49;;;;;;;31.05;14.98;;;;;;;14.71;98.84;102312.00;5073755;28;20028;-64
2021/07/18 03:44:14;;;;;;;31.13;15.23;;;;;;;14.69;99.87;102313.78;5070271;28;20029;-65
2021/07/18 03:46:40;;;;;;;31.92;13.57;;;;;;;14.64;97.75;102311.06;5076800;28;20060;-67
2021/07/18 03:49:05;;;;;;;33.88;15.70;;;;;;;14.61;100.00;102311.91;5068111;28;20405;-74
2021/07/18 03:51:31;;;;;;;33.42;15.98;;;;;;;14.60;100.00;102319.84;5066155;28;20078;-81
2021/07/18 03:53:56;;;;;;;33.03;15.77;;;;;;;14.63;100.00;102318.16;5064033;28;20377;-80
2021/07/18 03:56:22;;;;;;;31.35;15.13;;;;;;;14.68;100.00;102314.63;5063503;28;20029;-75
2021/07/18 03:58:49;;;;;;;31.45;14.73;;;;;;;14.74;99.75;102320.06;5065668;28;20045;-78
2021/07/18 04:01:15;;;;;;;34.30;16.10;;;;;;;14.75;99.70;102321.81;5063592;28;20037;-78
2021/07/18 04:03:41;;;;;;;31.13;16.27;;;;;;;14.78;99.90;102328.06;5066064;28;20031;-80
2021/07/18 04:06:07;;;;;;;32.20;15.52;;;;;;;14.71;100.00;102323.56;5062846;28;20021;-73
2021/07/18 04:08:32;;;;;;;32.67;15.90;;;;;;;14.68;100.00;102330.59;5066019;28;20029;-61
2021/07/18 04:10:58;;;;;;;30.48;16.50;;;;;;;14.66;100.00;102321.72;5063569;28;20107;-60
2021/07/18 04:13:23;;;;;;;32.05;16.10;;;;;;;14.67;100.00;102320.84;5064576;28;20033;-60
2021/07/18 04:15:48;;;;;;;33.13;15.20;;;;;;;14.72;100.00;102316.47;5064614;28;20028;-60
2021/07/18 04:18:14;;;;;;;34.33;16.90;;;;;;;14.70;100.00;102320.88;5063199;28;20059;-60
2021/07/18 04:20:39;;;;;;;33.90;16.23;;;;;;;14.77;100.00;102328.06;5066186;28;20028;-60
2021/07/18 04:23:06;;;;;;;31.88;16.60;;;;;;;14.85;100.00;102329.00;5062525;28;20079;-61
2021/07/18 04:25:31;;;;;;;32.75;17.70;;;;;;;14.84;100.00;102329.91;5065310;28;20077;-60
2021/07/18 04:27:56;;;;;;;35.10;18.10;;;;;;;14.85;100.00;102322.81;5063974;28;20032;-60
2021/07/18 04:30:22;;;;;;;36.35;19.55;;;;;;;14.81;100.00;102322.78;5063871;28;20366;-60
2021/07/18 04:32:48;;;;;;;32.45;18.50;;;;;;;14.86;100.00;102322.81;5064459;28;20028;-60
2021/07/18 04:35:14;;;;;;;34.80;19.45;;;;;;;14.91;100.00;102321.13;5062989;28;20033;-60
2021/07/18 04:37:40;;;;;;;35.00;17.80;;;;;;;14.94;100.00;102322.88;5065657;28;20028;-60
2021/07/18 04:40:06;;;;;;;34.50;18.52;;;;;;;14.92;100.00;102320.22;5062330;28;20029;-60
2021/07/18 04:42:31;;;;;;;34.97;19.80;;;;;;;14.91;100.00;102318.44;5065172;28;20467;-60
2021/07/18 04:44:57;;;;;;;36.10;20.63;;;;;;;14.93;100.00;102329.13;5063013;28;20033;-60
2021/07/18 04:47:22;;;;;;;35.10;19.70;;;;;;;14.97;100.00;102326.50;5063826;28;20494;-60
2021/07/18 04:49:48;;;;;;;35.25;20.00;;;;;;;15.04;100.00;102329.19;5064655;28;20024;-62
2021/07/18 04:52:14;;;;;;;37.55;21.52;;;;;;;15.08;100.00;102334.56;5062505;28;20116;-61
2021/07/18 04:54:39;;;;;;;34.65;19.75;;;;;;;15.10;100.00;102332.81;5065506;28;20116;-60
2021/07/18 04:57:05;;;;;;;38.25;21.15;;;;;;;15.13;100.00;102335.50;5061871;28;20059;-61
2021/07/18 04:59:31;;;;;;;38.22;21.08;;;;;;;15.18;100.00;102334.66;5064325;28;20052;-60
2021/07/18 05:01:56;;;;;;;39.50;23.52;;;;;;;15.29;100.00;102339.22;5063270;28;20024;-61
2021/07/18 05:04:21;;;;;;;39.75;22.90;;;;;;;15.34;100.00;102336.56;5063232;28;20070;-61
2021/07/18 05:06:47;;;;;;;38.70;23.25;;;;;;;15.40;100.00;102346.41;5063768;28;20127;-62
2021/07/18 05:09:12;;;;;;;42.40;24.50;;;;;;;15.47;100.00;102342.91;5062061;28;20025;-61
2021/07/18 05:11:37;;;;;;;41.22;24.90;;;;;;;15.52;100.00;102335.81;5064831;28;20028;-63
2021/07/18 05:14:03;;;;;;;41.13;24.20;;;;;;;15.59;100.00;102337.63;5058108;28;20032;-61
2021/07/18 05:16:30;;;;;;;41.50;24.48;;;;;;;15.67;100.00;102335.94;5066672;28;20029;-60
2021/07/18 05:18:55;;;;;;;39.88;24.20;;;;;;;15.77;100.00;102336.91;5050888;28;20043;-62
2021/07/18 05:21:20;;;;;;;41.85;24.73;;;;;;;15.82;100.00;102336.94;5070249;28;20411;-63
2021/07/18 05:23:46;;;;;;;39.28;23.98;;;;;;;15.88;100.00;102331.66;5067056;28;20025;-63
2021/07/18 05:26:11;;;;;;;42.42;25.35;;;;;;;15.92;100.00;102341.47;5070338;28;20146;-63
2021/07/18 05:28:37;;;;;;;39.97;24.52;;;;;;;16.01;100.00;102340.63;5068250;28;20017;-61
2021/07/18 05:31:02;;;;;;;41.00;24.02;;;;;;;16.07;100.00;102334.44;5065835;28;20052;-63
2021/07/18 05:33:28;;;;;;;40.58;23.92;;;;;;;16.14;100.00;102336.25;5068771;28;20029;-62
2021/07/18 05:35:53;;;;;;;39.47;24.15;;;;;;;16.19;100.00;102340.72;5066414;28;20063;-63
2021/07/18 05:38:19;;;;;;;39.40;23.10;;;;;;;16.25;100.00;102339.84;5064721;28;20115;-63
2021/07/18 05:40:44;;;;;;;38.60;23.13;;;;;;;16.28;100.00;102342.53;5063782;28;20025;-62
2021/07/18 05:43:10;;;;;;;38.35;22.60;;;;;;;16.39;100.00;102338.09;5062936;28;20131;-62
2021/07/18 05:45:35;;;;;;;39.67;23.38;;;;;;;16.39;100.00;102343.44;5067287;28;20115;-61
2021/07/18 05:48:00;;;;;;;41.78;22.90;;;;;;;16.43;100.00;102346.16;5065832;28;20106;-61
2021/07/18 05:50:26;;;;;;;36.55;21.92;;;;;;;16.52;100.00;102346.19;5067605;28;20039;-63
2021/07/18 05:52:51;;;;;;;39.05;21.33;;;;;;;16.56;100.00;102339.97;5066966;28;20079;-61
2021/07/18 05:55:16;;;;;;;37.60;22.13;;;;;;;16.61;100.00;102343.53;5068875;28;20602;-61
2021/07/18 05:57:42;;;;;;;36.88;20.88;;;;;;;16.67;100.00;102337.31;5067911;28;20111;-62
2021/07/18 06:00:10;;;;;;;36.03;21.33;;;;;;;16.71;100.00;102342.66;5065203;28;20036;-62
2021/07/18 06:02:36;;;;;;;37.85;21.65;;;;;;;16.77;100.00;102349.78;5047858;28;20048;-61
2021/07/18 06:05:03;;;;;;;36.00;20.30;;;;;;;16.82;100.00;102349.81;5046273;28;20560;-61
2021/07/18 06:07:28;;;;;;;35.75;20.73;;;;;;;16.88;100.00;102348.09;5066866;28;20035;-61
2021/07/18 06:09:53;;;;;;;36.42;20.30;;;;;;;16.95;100.00;102343.66;5066396;28;20021;-62
2021/07/18 06:12:19;;;;;;;36.38;20.48;;;;;;;17.01;100.00;102350.78;5064768;28;20447;-63
2021/07/18 06:14:45;;;;;;;32.20;18.33;;;;;;;17.11;100.00;102343.66;5066097;28;20086;-60
2021/07/18 06:17:11;;;;;;;34.08;18.92;;;;;;;17.13;100.00;102347.25;5049035;28;20472;-61
2021/07/18 06:19:39;;;;;;;33.08;18.77;;;;;;;17.22;98.93;102347.22;5047388;28;20033;-62
2021/07/18 06:22:06;;;;;;;33.22;17.85;;;;;;;17.22;98.35;102341.88;5068907;28;20025;-63
2021/07/18 06:24:32;;;;;;;33.63;17.00;;;;;;;17.25;99.09;102337.41;5069607;28;20021;-62
2021/07/18 06:26:58;;;;;;;32.50;16.23;;;;;;;17.29;99.90;102332.97;5066985;28;20120;-60
2021/07/18 06:29:23;;;;;;;32.88;16.48;;;;;;;17.34;97.16;102330.31;5069101;28;20107;-62
2021/07/18 06:31:48;;;;;;;28.60;13.98;;;;;;;17.38;94.31;102338.31;5075018;28;20066;-61
2021/07/18 06:34:14;;;;;;;29.10;14.32;;;;;;;17.48;94.01;102338.34;5074462;28;20063;-62
2021/07/18 06:36:39;;;;;;;29.38;14.35;;;;;;;17.58;94.40;102340.97;5071707;28;20100;-60
2021/07/18 06:39:05;;;;;;;28.70;13.95;;;;;;;17.66;93.21;102338.28;5074936;28;20039;-60
2021/07/18 06:41:30;;;;;;;30.55;14.10;;;;;;;17.74;91.54;102347.19;5074091;28;20099;-60
2021/07/18 06:43:55;;;;;;;30.38;15.38;;;;;;;17.85;95.77;102338.25;5068426;28;20021;-60
2021/07/18 06:46:21;;;;;;;29.02;13.15;;;;;;;17.89;90.19;102345.38;5068036;28;20021;-60
2021/07/18 06:48:46;;;;;;;29.25;14.10;;;;;;;18.01;94.44;102344.50;5068061;28;20064;-60
2021/07/18 06:51:12;;;;;;;29.27;13.00;;;;;;;18.04;90.66;102348.06;5069348;28;20103;-60
2021/07/18 06:53:37;;;;;;;28.27;12.77;;;;;;;18.12;88.94;102348.91;5072088;28;20023;-62
2021/07/18 06:56:03;;;;;;;27.58;12.65;;;;;;;18.20;90.01;102348.00;5069009;28;20017;-61
2021/07/18 06:58:28;;;;;;;29.20;12.07;;;;;;;18.27;88.23;102352.44;5071666;28;20035;-61
2021/07/18 07:00:53;;;;;;;27.58;11.90;;;;;;;18.31;86.34;102343.50;5065406;28;20116;-62
2021/07/18 07:03:19;;;;;;;26.50;11.82;;;;;;;18.42;85.02;102351.47;5065507;28;20119;-60
2021/07/18 07:05:44;;;;;;;25.55;11.77;;;;;;;18.45;85.94;102357.72;5066433;28;20036;-61
2021/07/18 07:08:09;;;;;;;26.00;11.68;;;;;;;18.51;84.34;102355.88;5064012;28;20373;-61
2021/07/18 07:10:35;;;;;;;26.63;11.40;;;;;;;18.58;85.15;102353.19;5067285;28;20020;-60
2021/07/18 07:13:00;;;;;;;25.27;10.75;;;;;;;18.67;85.18;102346.91;5064205;28;20047;-60
2021/07/18 07:15:25;;;;;;;26.75;11.02;;;;;;;18.76;85.15;102346.84;5066014;28;20024;-60
2021/07/18 07:17:51;;;;;;;25.25;9.88;;;;;;;18.85;81.25;102340.53;5065250;28;20097;-62
2021/07/18 07:20:16;;;;;;;23.35;9.70;;;;;;;18.95;82.53;102336.03;5065024;28;20108;-61
2021/07/18 07:22:42;;;;;;;26.65;10.07;;;;;;;18.99;80.18;102343.16;5066492;28;20031;-61
2021/07/18 07:25:13;;;;;;;24.13;9.57;;;;;;;19.10;81.01;102341.25;5063445;28;20436;-61
2021/07/18 07:27:39;;;;;;;24.60;9.90;;;;;;;19.14;80.36;102350.19;5066894;28;20028;-60
2021/07/18 07:30:10;;;;;;;24.75;9.30;;;;;;;19.21;81.32;102346.56;5063157;28;20472;-61
2021/07/18 07:32:36;;;;;;;24.17;9.48;;;;;;;19.30;80.56;102345.59;5063571;28;20025;-61
2021/07/18 07:35:08;;;;;;;24.42;9.30;;;;;;;19.34;80.18;102342.88;5063456;28;20029;-62
2021/07/18 07:37:34;;;;;;;24.87;9.90;;;;;;;19.43;79.74;102344.56;5063341;28;20539;-67
2021/07/18 07:40:01;;;;;;;23.75;10.02;;;;;;;19.54;79.45;102340.91;5067579;28;20263;-69
2021/07/18 07:42:27;;;;;;;24.77;10.18;;;;;;;19.63;80.41;102348.84;5069150;28;20496;-64
2021/07/18 07:44:52;;;;;;;23.60;9.20;;;;;;;19.69;78.13;102340.78;5069110;28;20098;-64
2021/07/18 07:47:18;;;;;;;22.80;8.82;;;;;;;19.79;78.19;102347.84;5064625;28;20537;-70
2021/07/18 07:49:44;;;;;;;22.35;8.25;;;;;;;19.90;77.28;102341.47;5065748;28;20388;-62
2021/07/18 07:52:11;;;;;;;22.40;7.97;;;;;;;19.98;77.27;102347.63;5065069;28;20036;-61
2021/07/18 07:54:37;;;;;;;22.33;6.97;;;;;;;20.10;77.60;102342.13;5067620;28;20037;-61
2021/07/18 07:57:03;;;;;;;21.10;6.57;;;;;;;20.20;75.79;102340.25;5066727;28;20031;-62
2021/07/18 07:59:28;;;;;;;20.17;6.22;;;;;;;20.29;75.13;102342.78;5073260;28;20051;-60
2021/07/18 08:01:53;;;;;;;20.75;6.70;;;;;;;20.43;75.64;102344.41;5079103;28;20048;-62
2021/07/18 08:04:19;;;;;;;20.40;5.93;;;;;;;20.57;75.49;102333.50;5070117;28;20052;-60
2021/07/18 08:06:45;;;;;;;19.83;6.18;;;;;;;20.65;73.82;102345.00;5075641;28;20078;-60
2021/07/18 08:09:10;;;;;;;20.17;5.70;;;;;;;20.69;71.83;102333.34;5074562;28;20052;-61
2021/07/18 08:11:35;;;;;;;18.52;6.07;;;;;;;20.78;72.12;102335.00;5065473;28;20104;-60
2021/07/18 08:14:01;;;;;;;19.10;5.80;;;;;;;20.88;73.25;102332.16;5064901;28;20510;-60
2021/07/18 08:16:26;;;;;;;20.42;5.63;;;;;;;20.98;71.64;102332.00;5064217;28;20020;-60
2021/07/18 08:18:51;;;;;;;15.85;4.53;;;;;;;21.01;70.00;102329.28;5063232;28;20052;-61
2021/07/18 08:21:16;;;;;;;18.02;5.13;;;;;;;21.13;72.15;102329.09;5065103;28;20042;-60
2021/07/18 08:23:43;;;;;;;18.90;4.60;;;;;;;21.30;70.89;102327.91;5062314;28;20071;-60
2021/07/18 08:26:09;;;;;;;17.25;4.60;;;;;;;21.47;68.69;102330.31;5066045;28;20170;-60
2021/07/18 08:28:38;;;;;;;16.90;4.60;;;;;;;21.57;68.96;102322.06;5063002;28;20103;-60
2021/07/18 08:31:03;;;;;;;16.08;4.47;;;;;;;21.69;67.54;102336.22;5064966;28;20021;-60
2021/07/18 08:33:28;;;;;;;18.73;4.53;;;;;;;21.84;67.88;102325.13;5063979;28;20021;-61
2021/07/18 08:35:54;;;;;;;17.73;4.55;;;;;;;21.97;67.75;102324.91;5063342;28;20082;-60
2021/07/18 08:38:19;;;;;;;20.02;4.40;;;;;;;22.04;66.70;102318.50;5065079;28;20055;-60
2021/07/18 08:40:48;;;;;;;15.93;4.32;;;;;;;22.20;65.89;102322.63;5061488;28;20025;-61
2021/07/18 08:43:13;;;;;;;18.83;4.50;;;;;;;22.32;66.46;102324.19;5062191;28;20036;-60
2021/07/18 08:45:38;;;;;;;18.90;4.70;;;;;;;22.50;65.25;102322.94;5065379;28;20356;-61
2021/07/18 08:48:04;;;;;;;20.02;4.68;;;;;;;22.96;64.32;102319.16;5062518;28;20032;-61
2021/07/18 08:50:30;;;;;;;17.60;4.63;;;;;;;23.54;60.99;102321.28;5063967;28;20025;-61
2021/07/18 08:52:55;;;;;;;16.52;4.80;;;;;;;23.56;60.51;102319.47;5064344;28;20070;-61
2021/07/18 08:55:23;;;;;;;17.13;4.40;;;;;;;23.58;61.67;102312.19;5062377;28;20487;-61
2021/07/18 08:57:48;;;;;;;17.17;4.53;;;;;;;23.58;60.96;102312.19;5064767;28;20441;-61
2021/07/18 09:00:14;;;;;;;18.48;5.05;;;;;;;23.61;61.33;102322.91;5061631;28;20132;-61
2021/07/18 09:02:41;;;;;;;19.17;4.70;;;;;;;23.60;61.18;102320.25;5065059;28;20021;-61
2021/07/18 09:05:07;;;;;;;17.40;4.57;;;;;;;23.68;60.64;102318.25;5062095;28;20104;-61
2021/07/18 09:07:43;;;;;;;17.77;4.63;;;;;;;23.66;61.13;102312.88;5064399;28;20187;-61
2021/07/18 09:10:08;;;;;;;18.73;4.75;;;;;;;23.76;61.03;102315.31;5061940;28;20079;-61
2021/07/18 09:12:34;;;;;;;23.85;7.72;;;;;;;23.92;59.83;102324.78;5064274;28;20476;-61
2021/07/18 09:15:00;;;;;;;18.55;5.20;;;;;;;23.96;59.39;102312.09;5063203;28;20024;-61
2021/07/18 09:17:25;;;;;;;22.40;5.82;;;;;;;24.12;58.95;102312.53;5062659;28;20025;-61
2021/07/18 09:19:51;;;;;;;24.55;6.63;;;;;;;24.30;58.56;102316.47;5063910;28;20021;-61
2021/07/18 09:22:19;;;;;;;18.95;5.10;;;;;;;24.34;58.05;102320.88;5061940;28;20072;-61
2021/07/18 09:24:54;;;;;;;21.20;5.55;;;;;;;24.32;59.44;102314.63;5064692;28;20024;-60
2021/07/18 09:27:23;;;;;;;24.95;6.93;;;;;;;24.34;57.30;102312.75;5062037;28;20025;-61
2021/07/18 09:29:54;;;;;;;25.08;7.60;;;;;;;24.36;56.82;102319.91;5064224;28;20383;-61
2021/07/18 09:32:26;;;;;;;19.40;5.07;;;;;;;24.39;58.42;102315.31;5061518;28;20021;-61
2021/07/18 09:34:59;;;;;;;32.78;9.88;;;;;;;24.58;58.68;102313.84;5063792;28;20115;-61
2021/07/18 09:37:28;;;;;;;31.00;9.98;;;;;;;24.79;58.57;102314.97;5062393;28;20123;-61
2021/07/18 09:39:57;;;;;;;33.97;10.55;;;;;;;24.97;56.00;102307.19;5063194;28;20147;-60
2021/07/18 09:42:28;;;;;;;26.52;7.97;;;;;;;25.01;56.91;102309.75;5062051;28;20116;-62
2021/07/18 09:44:54;;;;;;;24.97;7.83;;;;;;;24.96;56.89;102309.03;5063308;28;20027;-63
2021/07/18 09:47:19;;;;;;;27.90;9.07;;;;;;;24.96;56.61;102300.91;5061667;28;20017;-61
2021/07/18 09:49:44;;;;;;;21.05;6.05;;;;;;;24.97;56.25;102302.66;5064760;28;20498;-62
2021/07/18 09:52:22;;;;;;;20.02;5.60;;;;;;;25.02;57.40;102311.53;5042238;28;20504;-62
2021/07/18 09:54:50;;;;;;;34.08;13.85;;;;;;;25.16;55.29;102299.34;5060670;28;20051;-63
2021/07/18 09:57:35;;;;;;;31.27;12.27;;;;;;;25.45;56.45;102297.50;5064504;28;20020;-63
2021/07/18 10:00:04;;;;;;;55.20;24.40;;;;;;;25.69;55.04;102293.91;5062637;28;20056;-63
2021/07/18 10:02:30;;;;;;;28.77;10.98;;;;;;;26.07;53.21;102297.03;5062327;28;20053;-66
2021/07/18 10:04:57;;;;;;;40.85;19.58;;;;;;;27.08;50.67;102293.03;5062168;28;20024;-64
2021/07/18 10:07:28;;;;;;;23.98;8.52;;;;;;;28.58;47.17;102288.97;5063295;28;20024;-63
2021/07/18 10:09:54;;;;;;;36.70;23.05;;;;;;;30.20;43.27;102288.72;5062026;28;20029;-65
2021/07/18 10:12:20;;;;;;;22.38;8.65;;;;;;;31.46;40.01;102285.94;5063511;28;20530;-61
2021/07/18 10:14:46;;;;;;;21.40;7.75;;;;;;;32.94;36.52;102289.22;5060866;28;20039;-63
2021/07/18 10:17:11;;;;;;;22.75;8.20;;;;;;;33.61;34.41;102288.28;5060661;28;20021;-64
2021/07/18 10:19:37;;;;;;;25.85;11.00;;;;;;;34.32;33.14;102280.44;5063744;28;20029;-62
2021/07/18 10:22:04;;;;;;;25.13;11.48;;;;;;;34.70;34.16;102280.31;5061600;28;20031;-64
2021/07/18 10:24:32;;;;;;;19.30;5.63;;;;;;;34.36;32.63;102277.34;5062682;28;20025;-65
2021/07/18 10:26:58;;;;;;;22.70;8.73;;;;;;;34.22;33.37;102278.38;5062573;28;20075;-63
2021/07/18 10:29:24;;;;;;;67.25;27.23;;;;;;;34.66;31.65;102278.78;5061463;28;20410;-65
2021/07/18 10:31:52;;;;;;;19.17;5.78;;;;;;;34.89;31.49;102266.06;5063417;28;20016;-71
2021/07/18 10:34:19;;;;;;;21.88;6.20;;;;;;;34.47;31.37;102271.06;5060685;28;20072;-75
2021/07/18 10:36:49;;;;;;;20.45;6.00;;;;;;;35.00;31.49;102278.09;5063996;28;20058;-71
2021/07/18 10:39:35;;;;;;;20.90;6.03;;;;;;;36.29;31.61;102277.91;5060614;28;20065;-70
2021/07/18 10:42:04;;;;;;;21.52;8.75;;;;;;;36.72;29.15;102273.41;5062526;28;20028;-71
2021/07/18 10:44:46;;;;;;;25.35;10.85;;;;;;;37.32;28.89;102271.03;5061796;28;20475;-68
2021/07/18 10:47:12;;;;;;;25.42;12.80;;;;;;;38.14;26.72;102264.63;5063779;28;20562;-68
2021/07/18 10:50:00;;;;;;;23.77;12.00;;;;;;;38.84;28.75;102263.72;5061075;28;20368;-71
2021/07/18 10:52:34;;;;;;;22.48;9.10;;;;;;;38.69;26.74;102266.06;5043284;28;20439;-69
2021/07/18 10:55:02;;;;;;;20.15;7.40;;;;;;;39.19;25.08;102268.69;5061601;28;20078;-68
2021/07/18 10:57:29;;;;;;;21.67;8.52;;;;;;;39.44;24.45;102259.88;5044018;28;20041;-71
2021/07/18 11:00:24;;;;;;;20.58;6.15;;;;;;;40.03;25.74;102263.34;5062467;28;20041;-65
2021/07/18 11:03:05;;;;;;;19.42;5.95;;;;;;;39.34;25.93;102265.44;5060613;28;20063;-67
2021/07/18 11:05:48;;;;;;;19.30;5.63;;;;;;;38.36;25.99;102270.97;5064162;28;20082;-68
2021/07/18 11:08:14;;;;;;;19.27;5.38;;;;;;;37.81;27.49;102268.56;5063855;28;20502;-66
2021/07/18 11:10:58;;;;;;;16.73;5.00;;;;;;;38.50;26.73;102259.47;5066863;28;20115;-65